createdAt,value
2018-12-18T00:01:42.866Z,101838.38
2018-12-18T00:04:13.333Z,101838.31
2018-12-18T00:06:40.975Z,101845.26
2018-12-18T00:09:09.659Z,101843.52
2018-12-18T00:11:37.132Z,101845.66
2018-12-18T00:14:04.636Z,101848.69
2018-12-18T00:16:32.326Z,101851.67
2018-12-18T00:18:59.835Z,101852.55
2018-12-18T00:21:27.340Z,101848.28
2018-12-18T00:23:54.815Z,101847.41
2018-12-18T00:26:22.341Z,101845.26
2018-12-18T00:28:50.181Z,101844.47
2018-12-18T00:31:18.094Z,101847.08
2018-12-18T00:33:46.181Z,101849.64
2018-12-18T00:36:15.064Z,101856.78
2018-12-18T00:38:42.909Z,101850.39
2018-12-18T00:41:10.531Z,101844.80
2018-12-18T00:43:38.031Z,101844.77
2018-12-18T00:46:05.546Z,101845.20
2018-12-18T00:48:33.105Z,101840.50
2018-12-18T00:51:00.735Z,101842.06
2018-12-18T00:53:28.228Z,101850.14
2018-12-18T00:55:55.777Z,101851.83
2018-12-18T00:58:23.337Z,101848.46
2018-12-18T01:00:51.030Z,101843.43
2018-12-18T01:03:19.284Z,101843.81
2018-12-18T01:05:46.822Z,101845.58
2018-12-18T01:08:14.295Z,101857.98
2018-12-18T01:10:41.855Z,101854.47
2018-12-18T01:13:09.541Z,101862.60
2018-12-18T01:15:37.037Z,101873.70
2018-12-18T01:18:04.547Z,101878.41
2018-12-18T01:20:32.017Z,101878.34
2018-12-18T01:22:59.529Z,101876.80
2018-12-18T01:25:28.369Z,101869.89
2018-12-18T01:27:57.529Z,101868.59
2018-12-18T01:30:26.128Z,101873.73
2018-12-18T01:32:53.957Z,101869.45
2018-12-18T01:35:21.501Z,101879.62
2018-12-18T01:37:49.461Z,101885.55
2018-12-18T01:40:20.522Z,101880.96
2018-12-18T01:42:47.993Z,101886.09
2018-12-18T01:45:16.011Z,101881.92
2018-12-18T01:47:43.448Z,101894.23
2018-12-18T01:50:10.918Z,101903.12
2018-12-18T01:52:38.422Z,101903.12
2018-12-18T01:55:06.688Z,101898.86
2018-12-18T01:57:34.530Z,101901.67
2018-12-18T02:00:02.056Z,101905.48
2018-12-18T02:02:29.681Z,101906.38
2018-12-18T02:04:57.182Z,101911.11
2018-12-18T02:07:24.701Z,101904.41
2018-12-18T02:09:52.180Z,101903.50
2018-12-18T02:12:19.832Z,101904.78
2018-12-18T02:14:47.305Z,101897.98
2018-12-18T02:17:14.800Z,101892.49
2018-12-18T02:19:42.346Z,101898.53
2018-12-18T02:22:09.892Z,101889.12
2018-12-18T02:24:38.065Z,101889.59
2018-12-18T02:27:05.693Z,101887.03
2018-12-18T02:29:33.202Z,101886.63
2018-12-18T02:32:00.811Z,101883.34
2018-12-18T02:34:28.325Z,101882.06
2018-12-18T02:36:56.119Z,101884.16
2018-12-18T02:39:23.722Z,101894.00
2018-12-18T02:41:51.221Z,101894.95
2018-12-18T02:44:18.714Z,101897.48
2018-12-18T02:46:46.266Z,101899.34
2018-12-18T02:49:13.910Z,101899.81
2018-12-18T02:51:41.586Z,101905.27
2018-12-18T02:54:09.137Z,101910.04
2018-12-18T02:56:36.798Z,101915.56
2018-12-18T02:59:04.275Z,101909.22
2018-12-18T03:01:31.821Z,101913.09
2018-12-18T03:03:59.379Z,101911.81
2018-12-18T03:06:27.777Z,101903.23
2018-12-18T03:08:55.406Z,101907.51
2018-12-18T03:11:22.954Z,101904.11
2018-12-18T03:13:50.517Z,101908.37
2018-12-18T03:16:18.122Z,101910.59
2018-12-18T03:18:45.657Z,101904.55
2018-12-18T03:21:13.295Z,101914.42
2018-12-18T03:23:41.674Z,101909.25
2018-12-18T03:26:09.290Z,101910.61
2018-12-18T03:28:36.890Z,101901.66
2018-12-18T03:31:04.405Z,101898.29
2018-12-18T03:33:31.929Z,101897.07
2018-12-18T03:35:59.395Z,101898.29
2018-12-18T03:38:27.008Z,101897.88
2018-12-18T03:40:54.593Z,101894.39
2018-12-18T03:43:23.094Z,101893.98
2018-12-18T03:45:53.229Z,101900.77
2018-12-18T03:48:20.784Z,101900.27
2018-12-18T03:50:48.374Z,101910.91
2018-12-18T03:53:16.074Z,101900.07
2018-12-18T03:55:43.559Z,101902.77
2018-12-18T03:58:12.485Z,101906.61
2018-12-18T04:00:40.018Z,101900.53
2018-12-18T04:03:07.667Z,101901.88
2018-12-18T04:05:35.144Z,101904.84
2018-12-18T04:08:03.554Z,101901.81
2018-12-18T04:10:31.973Z,101906.38
2018-12-18T04:12:59.586Z,101908.20
2018-12-18T04:15:27.130Z,101909.41
2018-12-18T04:17:54.825Z,101910.70
2018-12-18T04:20:24.259Z,101913.58
2018-12-18T04:22:51.799Z,101911.47
2018-12-18T04:25:19.397Z,101908.53
2018-12-18T04:27:46.953Z,101909.41
2018-12-18T04:30:14.494Z,101907.34
2018-12-18T04:32:42.278Z,101898.70
2018-12-18T04:35:09.788Z,101903.03
2018-12-18T04:37:37.364Z,101899.98
2018-12-18T04:40:06.975Z,101896.21
2018-12-18T04:42:34.525Z,101893.66
2018-12-18T04:45:02.126Z,101893.12
2018-12-18T04:47:29.884Z,101895.66
2018-12-18T04:49:57.405Z,101890.55
2018-12-18T04:52:25.027Z,101895.69
2018-12-18T04:54:52.610Z,101892.55
2018-12-18T04:57:20.091Z,101897.98
2018-12-18T04:59:47.581Z,101894.15
2018-12-18T05:02:15.018Z,101900.95
2018-12-18T05:04:49.993Z,101898.39
2018-12-18T05:07:12.244Z,101896.64
2018-12-18T05:09:39.766Z,101900.13
2018-12-18T05:12:07.270Z,101904.00
2018-12-18T05:14:35.062Z,101906.55
2018-12-18T05:17:02.861Z,101895.02
2018-12-18T05:19:30.369Z,101891.19
2018-12-18T05:21:58.513Z,101904.14
2018-12-18T05:24:25.989Z,101904.61
2018-12-18T05:26:53.500Z,101912.69
2018-12-18T05:29:20.982Z,101902.40
2018-12-18T05:31:48.489Z,101910.59
2018-12-18T05:34:15.980Z,101905.97
2018-12-18T05:36:43.423Z,101909.81
2018-12-18T05:39:10.930Z,101913.58
2018-12-18T05:41:38.447Z,101913.09
2018-12-18T05:44:06.107Z,101910.05
2018-12-18T05:46:33.927Z,101908.30
2018-12-18T05:49:01.513Z,101919.48
2018-12-18T05:51:29.044Z,101916.02
2018-12-18T05:53:56.496Z,101922.36
2018-12-18T05:56:24.019Z,101931.30
2018-12-18T05:58:51.530Z,101924.53
2018-12-18T06:01:18.993Z,101930.98
2018-12-18T06:03:46.503Z,101927.09
2018-12-18T06:06:13.984Z,101923.31
2018-12-18T06:08:41.607Z,101925.41
2018-12-18T06:11:09.079Z,101924.04
2018-12-18T06:13:36.634Z,101921.40
2018-12-18T06:16:04.098Z,101926.89
2018-12-18T06:18:31.676Z,101930.11
2018-12-18T06:20:59.368Z,101935.69
2018-12-18T06:23:26.969Z,101931.04
2018-12-18T06:25:54.489Z,101930.20
2018-12-18T06:28:21.968Z,101935.31
2018-12-18T06:30:49.542Z,101937.55
2018-12-18T06:33:17.136Z,101935.86
2018-12-18T06:35:44.718Z,101935.84
2018-12-18T06:38:13.400Z,101936.64
2018-12-18T06:40:42.565Z,101935.31
2018-12-18T06:43:10.202Z,101939.61
2018-12-18T06:45:37.692Z,101939.61
2018-12-18T06:48:05.219Z,101943.84
2018-12-18T06:50:39.812Z,101939.55
2018-12-18T06:53:07.420Z,101938.55
2018-12-18T06:55:34.920Z,101940.95
2018-12-18T06:58:02.496Z,101944.09
2018-12-18T07:00:30.036Z,101942.88
2018-12-18T07:02:57.502Z,101940.00
2018-12-18T07:05:25.049Z,101942.14
2018-12-18T07:07:57.429Z,101933.92
2018-12-18T07:10:22.322Z,101941.77
2018-12-18T07:12:49.931Z,101941.67
2018-12-18T07:15:17.489Z,101939.15
2018-12-18T07:17:45.642Z,101938.74
2018-12-18T07:20:13.125Z,101938.74
2018-12-18T07:22:40.620Z,101944.38
2018-12-18T07:25:08.185Z,101941.39
2018-12-18T07:27:35.712Z,101948.16
2018-12-18T07:30:04.072Z,101957.52
2018-12-18T07:32:32.300Z,101955.42
2018-12-18T07:34:59.866Z,101955.98
2018-12-18T07:37:27.867Z,101951.20
2018-12-18T07:39:55.390Z,101957.11
2018-12-18T07:42:22.876Z,101967.39
2018-12-18T07:44:50.407Z,101965.16
2018-12-18T07:47:17.986Z,101966.46
2018-12-18T07:49:45.481Z,101972.39
2018-12-18T07:52:12.954Z,101975.79
2018-12-18T07:54:40.450Z,101973.17
2018-12-18T07:57:07.933Z,101975.26
2018-12-18T07:59:35.420Z,101977.47
2018-12-18T08:02:02.893Z,101974.05
2018-12-18T08:04:30.401Z,101978.38
2018-12-18T08:06:57.935Z,101974.19
2018-12-18T08:09:27.056Z,101974.22
2018-12-18T08:11:55.005Z,101976.69
2018-12-18T08:14:22.706Z,101979.63
2018-12-18T08:16:50.327Z,101978.93
2018-12-18T08:19:17.986Z,101981.08
2018-12-18T08:21:45.483Z,101986.05
2018-12-18T08:24:13.025Z,101987.73
2018-12-18T08:26:40.675Z,101996.80
2018-12-18T08:29:08.164Z,101986.83
2018-12-18T08:31:35.757Z,102000.63
2018-12-18T08:34:03.201Z,102007.45
2018-12-18T08:36:30.801Z,102009.20
2018-12-18T08:38:58.283Z,102002.00
2018-12-18T08:41:25.803Z,102006.18
2018-12-18T08:43:53.393Z,101999.85
2018-12-18T08:46:20.881Z,102009.20
2018-12-18T08:48:48.380Z,102013.10
2018-12-18T08:51:16.208Z,102012.48
2018-12-18T08:53:43.729Z,102003.19
2018-12-18T08:56:11.262Z,102001.91
2018-12-18T08:58:38.729Z,101999.87
2018-12-18T09:01:06.183Z,101997.06
2018-12-18T09:03:33.678Z,102000.03
2018-12-18T09:06:01.330Z,101999.22
2018-12-18T09:08:28.801Z,102002.73
2018-12-18T09:10:57.129Z,102003.92
2018-12-18T09:13:24.614Z,101998.28
2018-12-18T09:15:56.109Z,101999.16
2018-12-18T09:18:23.730Z,101988.90
2018-12-18T09:20:51.252Z,101985.87
2018-12-18T09:23:18.778Z,101988.58
2018-12-18T09:25:46.278Z,101988.12
2018-12-18T09:28:13.766Z,101982.19
2018-12-18T09:30:42.712Z,101980.19
2018-12-18T09:33:10.632Z,101971.67
2018-12-18T09:35:38.116Z,101966.23
2018-12-18T09:38:11.189Z,101961.12
2018-12-18T09:40:44.144Z,101947.05
2018-12-18T09:43:17.219Z,101945.34
2018-12-18T09:45:44.747Z,101939.05
2018-12-18T09:48:12.296Z,101943.44
2018-12-18T09:50:39.771Z,101934.00
2018-12-18T09:53:07.295Z,101936.31
2018-12-18T09:55:34.747Z,101935.03
2018-12-18T09:58:04.296Z,101932.54
2018-12-18T10:00:31.789Z,101932.63
2018-12-18T10:02:59.307Z,101926.22
2018-12-18T10:05:27.765Z,101923.69
2018-12-18T10:07:55.348Z,101924.63
2018-12-18T10:10:23.647Z,101911.83
2018-12-18T10:12:55.848Z,101917.82
2018-12-18T10:15:25.039Z,101911.83
2018-12-18T10:17:52.503Z,101907.20
2018-12-18T10:20:20.108Z,101902.61
2018-12-18T10:22:47.556Z,101902.55
2018-12-18T10:25:15.154Z,101913.67
2018-12-18T10:27:43.613Z,101905.19
2018-12-18T10:30:11.111Z,101897.91
2018-12-18T10:32:38.564Z,101904.05
2018-12-18T10:35:06.423Z,101899.81
2018-12-18T10:37:33.971Z,101895.24
2018-12-18T10:40:01.759Z,101892.47
2018-12-18T10:42:29.312Z,101889.56
2018-12-18T10:44:56.842Z,101895.95
2018-12-18T10:47:24.318Z,101899.95
2018-12-18T10:49:51.820Z,101897.86
2018-12-18T10:52:19.323Z,101895.20
2018-12-18T10:54:46.801Z,101893.03
2018-12-18T10:57:14.240Z,101886.45
2018-12-18T10:59:41.866Z,101883.66
2018-12-18T11:02:09.523Z,101880.41
2018-12-18T11:04:37.094Z,101875.44
2018-12-18T11:07:05.717Z,101871.19
2018-12-18T11:09:33.270Z,101872.14
2018-12-18T11:12:00.765Z,101866.66
2018-12-18T11:14:28.481Z,101866.35
2018-12-18T11:16:56.113Z,101859.03
2018-12-18T11:19:23.650Z,101845.28
2018-12-18T11:21:51.209Z,101848.79
2018-12-18T11:24:18.645Z,101844.20
2018-12-18T11:26:46.298Z,101848.38
2018-12-18T11:29:14.092Z,101836.12
2018-12-18T11:31:41.646Z,101835.76
2018-12-18T11:34:10.471Z,101828.89
2018-12-18T11:36:37.966Z,101833.94
2018-12-18T11:39:06.412Z,101845.00
2018-12-18T11:41:33.919Z,101834.02
2018-12-18T11:44:01.469Z,101840.30
2018-12-18T11:46:28.936Z,101828.96
2018-12-18T11:48:56.414Z,101818.20
2018-12-18T11:51:23.923Z,101800.95
2018-12-18T11:53:51.499Z,101809.03
2018-12-18T11:56:18.968Z,101808.22
2018-12-18T11:58:46.622Z,101794.34
2018-12-18T12:01:14.192Z,101800.48
2018-12-18T12:03:41.730Z,101794.67
2018-12-18T12:06:09.228Z,101791.01
2018-12-18T12:08:36.884Z,101783.73
2018-12-18T12:11:05.049Z,101780.82
2018-12-18T12:13:33.113Z,101776.23
2018-12-18T12:16:00.792Z,101773.33
2018-12-18T12:18:28.887Z,101773.75
2018-12-18T12:20:56.506Z,101765.98
2018-12-18T12:23:23.977Z,101769.84
2018-12-18T12:25:51.541Z,101768.16
2018-12-18T12:28:19.075Z,101767.86
2018-12-18T12:30:47.047Z,101764.02
2018-12-18T12:33:14.560Z,101764.68
2018-12-18T12:35:42.042Z,101769.66
2018-12-18T12:38:09.471Z,101769.81
2018-12-18T12:40:37.084Z,101770.30
2018-12-18T12:43:04.581Z,101762.94
2018-12-18T12:45:32.154Z,101757.67
2018-12-18T12:47:59.717Z,101755.97
2018-12-18T12:50:27.584Z,101756.70
2018-12-18T12:52:55.305Z,101765.05
2018-12-18T12:55:22.986Z,101763.23
2018-12-18T12:57:50.487Z,101754.62
2018-12-18T13:00:18.064Z,101752.88
2018-12-18T13:02:45.547Z,101747.95
2018-12-18T13:05:13.205Z,101753.83
2018-12-18T13:07:40.790Z,101753.42
2018-12-18T13:10:08.401Z,101745.48
2018-12-18T13:12:35.978Z,101750.73
2018-12-18T13:15:04.099Z,101736.39
2018-12-18T13:17:31.578Z,101733.61
2018-12-18T13:19:59.171Z,101731.13
2018-12-18T13:22:27.608Z,101714.48
2018-12-18T13:24:55.106Z,101714.81
2018-12-18T13:27:22.605Z,101715.09
2018-12-18T13:29:51.083Z,101716.86
2018-12-18T13:32:18.572Z,101709.59
2018-12-18T13:34:46.064Z,101711.27
2018-12-18T13:37:13.641Z,101707.77
2018-12-18T13:39:41.148Z,101703.11
2018-12-18T13:42:08.717Z,101697.53
2018-12-18T13:44:36.517Z,101694.08
2018-12-18T13:47:04.181Z,101693.57
2018-12-18T13:49:31.795Z,101682.39
2018-12-18T13:51:59.274Z,101675.55
2018-12-18T13:54:27.010Z,101684.09
2018-12-18T13:56:56.107Z,101676.27
2018-12-18T13:59:23.647Z,101676.42
2018-12-18T14:01:51.121Z,101675.47
2018-12-18T14:04:18.738Z,101671.16
2018-12-18T14:06:49.575Z,101673.30
2018-12-18T14:09:15.752Z,101673.33
2018-12-18T14:11:43.256Z,101674.20
2018-12-18T14:14:10.864Z,101668.27
2018-12-18T14:16:38.523Z,101660.95
2018-12-18T14:19:06.066Z,101659.67
2018-12-18T14:21:33.577Z,101664.78
2018-12-18T14:24:01.068Z,101652.41
2018-12-18T14:26:29.241Z,101655.02
2018-12-18T14:28:56.793Z,101648.07
2018-12-18T14:31:24.272Z,101650.97
2018-12-18T14:33:51.728Z,101654.94
2018-12-18T14:36:19.192Z,101664.63
2018-12-18T14:38:46.789Z,101669.61
2018-12-18T14:41:14.357Z,101667.11
2018-12-18T14:43:43.013Z,101671.28
2018-12-18T14:46:11.673Z,101668.52
2018-12-18T14:48:39.188Z,101659.90
2018-12-18T14:51:06.627Z,101664.49
2018-12-18T14:53:34.154Z,101663.27
2018-12-18T14:56:01.620Z,101657.88
2018-12-18T14:58:29.419Z,101663.80
2018-12-18T15:00:56.889Z,101663.86
2018-12-18T15:03:24.352Z,101659.97
2018-12-18T15:05:51.964Z,101649.80
2018-12-18T15:08:19.651Z,101661.24
2018-12-18T15:10:47.238Z,101655.67
2018-12-18T15:13:15.073Z,101654.86
2018-12-18T15:15:42.552Z,101650.16
2018-12-18T15:18:10.003Z,101643.66
2018-12-18T15:20:37.575Z,101642.91
2018-12-18T15:23:05.052Z,101647.18
2018-12-18T15:25:32.517Z,101651.60
2018-12-18T15:28:00.042Z,101643.37
2018-12-18T15:30:27.667Z,101638.99
2018-12-18T15:32:55.637Z,101641.38
2018-12-18T15:35:23.722Z,101640.62
2018-12-18T15:37:52.148Z,101637.34
2018-12-18T15:40:19.670Z,101637.80
2018-12-18T15:42:47.166Z,101637.02
2018-12-18T15:45:14.661Z,101640.73
2018-12-18T15:47:42.103Z,101640.76
2018-12-18T15:50:09.614Z,101636.98
2018-12-18T15:52:37.058Z,101634.78
2018-12-18T15:55:05.191Z,101630.93
2018-12-18T15:57:32.623Z,101635.25
2018-12-18T16:00:00.169Z,101629.33
2018-12-18T16:02:27.690Z,101630.23
2018-12-18T16:04:55.357Z,101637.67
2018-12-18T16:07:23.882Z,101633.70
2018-12-18T16:09:51.362Z,101629.38
2018-12-18T16:12:18.958Z,101632.66
2018-12-18T16:14:46.485Z,101635.52
2018-12-18T16:17:13.936Z,101632.82
2018-12-18T16:19:41.492Z,101628.27
2018-12-18T16:22:09.018Z,101623.45
2018-12-18T16:24:36.566Z,101622.58
2018-12-18T16:27:04.047Z,101623.54
2018-12-18T16:29:31.596Z,101623.31
2018-12-18T16:31:59.179Z,101630.73
2018-12-18T16:34:26.793Z,101615.98
2018-12-18T16:36:54.303Z,101614.86
2018-12-18T16:39:21.767Z,101608.82
2018-12-18T16:41:49.248Z,101615.17
2018-12-18T16:44:16.776Z,101601.58
2018-12-18T16:46:44.279Z,101605.14
2018-12-18T16:49:11.799Z,101600.59
2018-12-18T16:51:39.347Z,101597.84
2018-12-18T16:54:07.194Z,101596.16
2018-12-18T16:56:35.056Z,101596.81
2018-12-18T16:59:02.623Z,101595.75
2018-12-18T17:01:30.100Z,101591.24
2018-12-18T17:03:57.561Z,101591.36
2018-12-18T17:06:25.051Z,101585.95
2018-12-18T17:08:52.653Z,101589.72
2018-12-18T17:11:20.149Z,101582.56
2018-12-18T17:13:47.778Z,101583.68
2018-12-18T17:16:16.447Z,101585.85
2018-12-18T17:18:44.048Z,101591.77
2018-12-18T17:21:11.521Z,101589.59
2018-12-18T17:23:39.471Z,101589.97
2018-12-18T17:26:06.952Z,101591.73
2018-12-18T17:28:34.443Z,101590.73
2018-12-18T17:31:01.968Z,101594.77
2018-12-18T17:33:29.424Z,101598.62
2018-12-18T17:35:57.055Z,101594.20
2018-12-18T17:38:25.689Z,101588.90
2018-12-18T17:40:53.431Z,101595.48
2018-12-18T17:43:21.243Z,101595.52
2018-12-18T17:45:48.747Z,101591.91
2018-12-18T17:48:16.204Z,101592.87
2018-12-18T17:53:22.740Z,101586.98
2018-12-18T17:55:50.196Z,101589.37
2018-12-18T17:58:17.800Z,101587.66
2018-12-18T18:00:45.331Z,101589.22
2018-12-18T18:03:13.003Z,101590.75
2018-12-18T18:05:40.542Z,101587.33
2018-12-18T18:08:08.220Z,101582.39
2018-12-18T18:10:36.628Z,101584.59
2018-12-18T18:13:04.080Z,101578.65
2018-12-18T18:15:31.547Z,101582.16
2018-12-18T18:17:59.142Z,101572.25
2018-12-18T18:20:26.655Z,101578.29
2018-12-18T18:22:54.118Z,101572.97
2018-12-18T18:25:21.820Z,101571.83
2018-12-18T18:27:49.426Z,101558.59
2018-12-18T18:30:17.960Z,101559.30
2018-12-18T18:32:46.656Z,101563.16
2018-12-18T18:35:14.102Z,101555.11
2018-12-18T18:37:41.580Z,101553.27
2018-12-18T18:40:09.037Z,101556.50
2018-12-18T18:42:36.519Z,101555.87
2018-12-18T18:45:04.499Z,101550.91
2018-12-18T18:47:31.951Z,101545.28
2018-12-18T18:49:59.407Z,101532.86
2018-12-18T18:52:31.334Z,101523.38
2018-12-18T18:55:03.370Z,101519.25
2018-12-18T18:57:31.960Z,101516.48
2018-12-18T19:00:01.902Z,101518.78
2018-12-18T19:02:29.398Z,101522.03
2018-12-18T19:04:58.478Z,101526.42
2018-12-18T19:07:30.056Z,101507.63
2018-12-18T19:09:59.219Z,101512.75
2018-12-18T19:12:32.373Z,101506.05
2018-12-18T19:15:00.740Z,101504.64
2018-12-18T19:17:28.874Z,101497.53
2018-12-18T19:19:56.387Z,101495.33
2018-12-18T19:22:23.953Z,101491.38
2018-12-18T19:24:51.471Z,101493.49
2018-12-18T19:27:18.966Z,101490.73
2018-12-18T19:29:47.166Z,101480.98
2018-12-18T19:32:14.608Z,101478.19
2018-12-18T19:34:43.033Z,101474.27
2018-12-18T19:37:10.632Z,101474.30
2018-12-18T19:39:38.517Z,101458.93
2018-12-18T19:42:06.394Z,101459.80
2018-12-18T19:44:34.591Z,101459.92
2018-12-18T19:47:02.094Z,101452.12
2018-12-18T19:49:29.889Z,101451.97
2018-12-18T19:51:57.492Z,101445.27
2018-12-18T19:54:25.057Z,101444.39
2018-12-18T19:56:53.520Z,101437.63
2018-12-18T19:59:21.127Z,101438.77
2018-12-18T20:01:48.641Z,101432.94
2018-12-18T20:04:16.113Z,101422.14
2018-12-18T20:06:43.611Z,101421.67
2018-12-18T20:09:11.155Z,101419.77
2018-12-18T20:11:38.691Z,101409.84
2018-12-18T20:14:06.164Z,101396.59
2018-12-18T20:16:33.962Z,101399.23
2018-12-18T20:19:01.393Z,101399.23
2018-12-18T20:21:28.896Z,101395.12
2018-12-18T20:23:56.367Z,101386.67
2018-12-18T20:26:23.850Z,101384.04
2018-12-18T20:28:51.360Z,101372.98
2018-12-18T20:31:18.801Z,101368.21
2018-12-18T20:33:46.494Z,101367.72
2018-12-18T20:36:14.073Z,101367.75
2018-12-18T20:38:42.625Z,101361.38
2018-12-18T20:41:10.154Z,101363.77
2018-12-18T20:43:37.631Z,101361.28
2018-12-18T20:46:05.126Z,101354.77
2018-12-18T20:48:32.981Z,101353.11
2018-12-18T20:51:00.440Z,101341.95
2018-12-18T20:53:27.932Z,101338.38
2018-12-18T20:55:55.407Z,101343.78
2018-12-18T20:58:23.087Z,101348.47
2018-12-18T21:00:50.728Z,101343.53
2018-12-18T21:03:18.278Z,101338.78
2018-12-18T21:05:45.781Z,101342.02
2018-12-18T21:08:13.813Z,101336.70
2018-12-18T21:10:41.298Z,101340.67
2018-12-18T21:13:14.460Z,101338.36
2018-12-18T21:15:42.451Z,101336.55
2018-12-18T21:18:10.054Z,101339.10
2018-12-18T21:20:37.529Z,101332.64
2018-12-18T21:23:05.003Z,101328.83
2018-12-18T21:25:33.137Z,101329.76
2018-12-18T21:28:00.580Z,101329.61
2018-12-18T21:30:28.639Z,101332.47
2018-12-18T21:32:56.122Z,101325.23
2018-12-18T21:35:23.718Z,101323.88
2018-12-18T21:37:51.246Z,101328.03
2018-12-18T21:40:18.774Z,101329.77
2018-12-18T21:42:46.226Z,101330.98
2018-12-18T21:45:13.687Z,101340.63
2018-12-18T21:47:41.166Z,101333.84
2018-12-18T21:50:08.795Z,101340.04
2018-12-18T21:52:36.267Z,101332.63
2018-12-18T21:55:04.301Z,101337.00
2018-12-18T21:57:31.874Z,101329.65
2018-12-18T21:59:59.407Z,101326.70
2018-12-18T22:02:26.958Z,101321.14
2018-12-18T22:04:54.447Z,101314.87
2018-12-18T22:07:21.913Z,101308.61
2018-12-18T22:09:49.362Z,101296.02
2018-12-18T22:12:16.910Z,101287.02
2018-12-18T22:14:44.451Z,101283.14
2018-12-18T22:17:11.923Z,101282.80
2018-12-18T22:19:39.485Z,101281.06
2018-12-18T22:22:06.987Z,101284.91
2018-12-18T22:24:34.580Z,101285.38
2018-12-18T22:27:02.495Z,101278.86
2018-12-18T22:29:30.010Z,101267.39
2018-12-18T22:31:57.491Z,101261.52
2018-12-18T22:34:25.064Z,101256.93
2018-12-18T22:36:52.530Z,101233.69
2018-12-18T22:39:20.057Z,101234.88
2018-12-18T22:41:47.563Z,101237.11
2018-12-18T22:44:15.002Z,101234.95
2018-12-18T22:46:42.456Z,101228.16
2018-12-18T22:49:10.000Z,101224.10
2018-12-18T22:51:37.483Z,101218.05
2018-12-18T22:54:04.995Z,101216.59
2018-12-18T22:56:33.231Z,101218.42
2018-12-18T22:59:00.871Z,101207.05
2018-12-18T23:01:35.926Z,101201.67
2018-12-18T23:04:03.580Z,101195.31
2018-12-18T23:09:15.895Z,101179.66
2018-12-18T23:11:43.457Z,101179.94
2018-12-18T23:14:10.985Z,101172.72
2018-12-18T23:16:38.532Z,101167.66
2018-12-18T23:19:06.189Z,101160.23
2018-12-18T23:21:33.732Z,101153.02
2018-12-18T23:24:01.170Z,101147.76
2018-12-18T23:26:29.415Z,101147.84
2018-12-18T23:28:56.854Z,101151.69
2018-12-18T23:31:24.315Z,101141.72
2018-12-18T23:33:51.832Z,101142.80
2018-12-18T23:36:19.317Z,101130.11
2018-12-18T23:38:46.808Z,101128.52
2018-12-18T23:41:14.419Z,101117.85
2018-12-18T23:43:41.917Z,101119.39
2018-12-18T23:46:09.448Z,101116.66
2018-12-18T23:48:39.868Z,101112.79
2018-12-18T23:51:06.621Z,101101.66
2018-12-18T23:53:34.074Z,101097.02
2018-12-18T23:56:01.542Z,101085.13
2018-12-18T23:58:28.990Z,101077.94
